CA-0307 weather

Hawke Field
Ontario, Canada

Public forecast

Using degrees Celsius for public forecast. Weather courtesy of forecast.io.

METAR (pilot weather report)

Closest report is Toronto/Oshawa Executive Airport, 11.6 nm (21.5 km) WSW. Retrieved 2019/04/24 18:00 UTC (4 minutes ago):

CYOO 241800Z AUTO 30013KT 9SM OVC025 08/02 A2993 RMK SLP139

TAF (pilot weather forecast)

Closest forecast is Toronto/Oshawa Executive Airport, 11.6 nm (21.5 km) WSW. Retrieved 2019/04/24 14:00 UTC (4 hours ago):

TAF CYOO 241338Z 2414/2502 30012G22KT P6SM OVC020 TEMPO 2414/2420 OVC025 FM242000 30010G20KT P6SM BKN030 BECMG 2421/2423 33008KT RMK FCST BASED ON AUTO OBS. NXT FCST BY 242000Z